logo
Rechercher aéroport 
image banner adimage banner adimage banner ad
image banner ad

LOKU - Klagenfurt Ukh

Situé à District Klagenfurt Stadt, Austria

ICAO - , IATA -

Données fournies par Airmate  

Information générale

Coordonnées: N46°37'5" E14°17'44"
Élévation : 1506 feet MSL.
 
Voir autres Aéroports à Carinthia

Données opérationnelles

Special qualification required
Heure actuelle UTC:
Heure actuelle locale:
Météo à : LOWK - Klagenfurt ( 4 km )
METAR: LOWK 281250Z AUTO VRB02KT 9999 FEW020 11/05 Q1019 NOSIG
TAF: TAF LOWK 281115Z 2812/2912 VRB03KT 9999 SCT050 TX13/2814Z TN06/2905Z TEMPO 2901/2909 4500 BR BKN012
Voir NOTAMs / SUP AIP / TFR affectant cet aéroport [VIEW]
Fréquences de communication: [VIEW]

Pistes:

Coordonnées de l'aéroport

Adresse: District Klagenfurt Stadt Austria

Vue satellite de LOKU